Terminal Aerodrome Forecast
Issued by NWS Des Moines, IA

Home | Current Version | Previous Version | Text Only | Print | Product List | Glossary On
Versions: 1 2 3 4 5 6 7 8 9 10 11 12 13 14 15 16 17 18 19 20 21 22 23 24 25 26 27 28
000
FTUS43 KDMX 280746 AAB
TAFDSM
TAF AMD
KDSM 280746Z 2808/2906 15012KT P6SM SCT040 BKN150
     FM280900 15012G18KT 5SM -SHRA BR VCTS OVC030CB
     FM281600 18015G22KT 5SM -SHRA BR OVC025
     FM282000 13011KT 6SM -SHRA BR OVC020
     FM290300 10006KT 3SM BR OVC015=

USA.gov is the U.S. government's official web portal to all federal, state and local government web resources and services.